HSH weather

Henderson Executive Airport
Las Vegas, Nevada, United States

Public forecast

Using degrees Fahrenheit for public forecast. Weather courtesy of forecast.io.

METAR (pilot weather report)

Retrieved 2019/02/16 22:56 UTC (14 minutes ago):

KHND 162256Z 00000KT 10SM FEW070 OVC100 11/M03 A2992 RMK AO2 RAE06 SLP134 P0000 T01111033 $

TAF (pilot weather forecast)

Retrieved 2019/02/16 18:36 UTC (5 hours ago):

TAF KHND 161733Z 1618/1718 22008KT P6SM SCT100 FM162200 26010KT P6SM SCT100 FM170200 23008KT P6SM BKN100